
<gpx xmlns="http://www.topografix.com/GPX/1/1" xmlns:gpxx="http://www.garmin.com/xmlschemas/GpxExtensions/v3" xmlns:xsi="http://www.w3.org/2001/XMLSchema-instance" version="1.1" creator="Adze - https://getadze.com/" xsi:schemaLocation="http://www.topografix.com/GPX/1/1 http://www.topografix.com/GPX/1/1/gpx.xsd http://www.garmin.com/xmlschemas/GpxExtensions/v3 http://www.garmin.com/xmlschemas/GpxExtensionsv3.xsd">
    <metadata>
        <name>Untitled Document</name>
        <link href="http://www.garmin.com"></link>
        <time>2018-03-08T10:30:04.113Z</time>
    </metadata>
    <trk>
        <name>February 2011 (CM Special) - Sunday</name>
        <extensions>
            <gpxx:TrackExtension xmlns:gpxx="http://www.garmin.com/xmlschemas/GpxExtensions/v3">
                <gpxx:DisplayColor>Green</gpxx:DisplayColor>
            </gpxx:TrackExtension>
        </extensions>
        <trkseg>
            <trkpt lon="98.918970" lat="18.762448">
                <ele>311.604492</ele>
                <time>2011-02-20T02:44:54Z</time>
            </trkpt>
            <trkpt lon="98.918014" lat="18.762046">
                <ele>312.085205</ele>
                <time>2011-02-20T02:45:15Z</time>
            </trkpt>
            <trkpt lon="98.916192" lat="18.761543">
                <ele>305.355957</ele>
                <time>2011-02-20T02:45:48Z</time>
            </trkpt>
            <trkpt lon="98.915696" lat="18.761302">
                <ele>308.239868</ele>
                <time>2011-02-20T02:45:57Z</time>
            </trkpt>
            <trkpt lon="98.914203" lat="18.760458">
                <ele>308.239868</ele>
                <time>2011-02-20T02:46:29Z</time>
            </trkpt>
            <trkpt lon="98.913521" lat="18.759682">
                <ele>313.046509</ele>
                <time>2011-02-20T02:46:51Z</time>
            </trkpt>
            <trkpt lon="98.912216" lat="18.758758">
                <ele>310.643066</ele>
                <time>2011-02-20T02:47:34Z</time>
            </trkpt>
            <trkpt lon="98.910992" lat="18.757534">
                <ele>315.449829</ele>
                <time>2011-02-20T02:48:13Z</time>
            </trkpt>
            <trkpt lon="98.908970" lat="18.757376">
                <ele>317.372436</ele>
                <time>2011-02-20T02:48:59Z</time>
            </trkpt>
            <trkpt lon="98.907237" lat="18.757024">
                <ele>320.256348</ele>
                <time>2011-02-20T02:49:35Z</time>
            </trkpt>
            <trkpt lon="98.906329" lat="18.755931">
                <ele>324.582275</ele>
                <time>2011-02-20T02:50:07Z</time>
            </trkpt>
            <trkpt lon="98.905435" lat="18.755540">
                <ele>326.024170</ele>
                <time>2011-02-20T02:50:34Z</time>
            </trkpt>
            <trkpt lon="98.904533" lat="18.755482">
                <ele>326.024170</ele>
                <time>2011-02-20T02:50:53Z</time>
            </trkpt>
            <trkpt lon="98.903538" lat="18.755216">
                <ele>328.908325</ele>
                <time>2011-02-20T02:51:14Z</time>
            </trkpt>
            <trkpt lon="98.899699" lat="18.753282">
                <ele>342.366699</ele>
                <time>2011-02-20T02:53:14Z</time>
            </trkpt>
            <trkpt lon="98.899068" lat="18.753096">
                <ele>374.570801</ele>
                <time>2011-02-20T02:53:56Z</time>
            </trkpt>
            <trkpt lon="98.898846" lat="18.753079">
                <ele>382.261352</ele>
                <time>2011-02-20T02:54:13Z</time>
            </trkpt>
            <trkpt lon="98.898682" lat="18.753082">
                <ele>384.184082</ele>
                <time>2011-02-20T02:54:27Z</time>
            </trkpt>
            <trkpt lon="98.898528" lat="18.753004">
                <ele>387.548584</ele>
                <time>2011-02-20T02:54:43Z</time>
            </trkpt>
            <trkpt lon="98.898466" lat="18.752385">
                <ele>397.642456</ele>
                <time>2011-02-20T02:55:58Z</time>
            </trkpt>
            <trkpt lon="98.898208" lat="18.752063">
                <ele>401.487793</ele>
                <time>2011-02-20T02:56:37Z</time>
            </trkpt>
            <trkpt lon="98.897515" lat="18.751542">
                <ele>406.774902</ele>
                <time>2011-02-20T02:57:37Z</time>
            </trkpt>
            <trkpt lon="98.896594" lat="18.751378">
                <ele>414.465454</ele>
                <time>2011-02-20T02:58:45Z</time>
            </trkpt>
            <trkpt lon="98.896168" lat="18.751179">
                <ele>417.349609</ele>
                <time>2011-02-20T02:59:17Z</time>
            </trkpt>
            <trkpt lon="98.895428" lat="18.750774">
                <ele>415.426880</ele>
                <time>2011-02-20T02:59:50Z</time>
            </trkpt>
            <trkpt lon="98.894778" lat="18.750819">
                <ele>411.100952</ele>
                <time>2011-02-20T03:00:04Z</time>
            </trkpt>
            <trkpt lon="98.892647" lat="18.749969">
                <ele>389.471191</ele>
                <time>2011-02-20T03:00:44Z</time>
            </trkpt>
            <trkpt lon="98.891272" lat="18.750532">
                <ele>378.896851</ele>
                <time>2011-02-20T03:01:05Z</time>
            </trkpt>
            <trkpt lon="98.891207" lat="18.750642">
                <ele>377.454834</ele>
                <time>2011-02-20T03:01:07Z</time>
            </trkpt>
            <trkpt lon="98.891233" lat="18.751000">
                <ele>376.012817</ele>
                <time>2011-02-20T03:01:12Z</time>
            </trkpt>
            <trkpt lon="98.891776" lat="18.751609">
                <ele>372.648193</ele>
                <time>2011-02-20T03:01:25Z</time>
            </trkpt>
            <trkpt lon="98.891656" lat="18.751784">
                <ele>372.648193</ele>
                <time>2011-02-20T03:01:30Z</time>
            </trkpt>
            <trkpt lon="98.890625" lat="18.751539">
                <ele>362.554321</ele>
                <time>2011-02-20T03:01:45Z</time>
            </trkpt>
            <trkpt lon="98.890417" lat="18.751589">
                <ele>360.631714</ele>
                <time>2011-02-20T03:01:48Z</time>
            </trkpt>
            <trkpt lon="98.890004" lat="18.752029">
                <ele>359.670410</ele>
                <time>2011-02-20T03:01:57Z</time>
            </trkpt>
            <trkpt lon="98.889322" lat="18.752250">
                <ele>359.189697</ele>
                <time>2011-02-20T03:02:10Z</time>
            </trkpt>
            <trkpt lon="98.888648" lat="18.752401">
                <ele>357.267090</ele>
                <time>2011-02-20T03:02:23Z</time>
            </trkpt>
            <trkpt lon="98.888232" lat="18.753017">
                <ele>358.708984</ele>
                <time>2011-02-20T03:02:37Z</time>
            </trkpt>
            <trkpt lon="98.887129" lat="18.754106">
                <ele>362.073731</ele>
                <time>2011-02-20T03:03:15Z</time>
            </trkpt>
            <trkpt lon="98.886661" lat="18.754561">
                <ele>362.554321</ele>
                <time>2011-02-20T03:03:29Z</time>
            </trkpt>
            <trkpt lon="98.886576" lat="18.754642">
                <ele>362.073731</ele>
                <time>2011-02-20T03:03:32Z</time>
            </trkpt>
            <trkpt lon="98.886347" lat="18.754435">
                <ele>360.631714</ele>
                <time>2011-02-20T03:03:40Z</time>
            </trkpt>
            <trkpt lon="98.886132" lat="18.753747">
                <ele>359.670410</ele>
                <time>2011-02-20T03:03:55Z</time>
            </trkpt>
            <trkpt lon="98.886190" lat="18.752920">
                <ele>356.305786</ele>
                <time>2011-02-20T03:04:11Z</time>
            </trkpt>
            <trkpt lon="98.885853" lat="18.752005">
                <ele>352.941162</ele>
                <time>2011-02-20T03:04:26Z</time>
            </trkpt>
            <trkpt lon="98.884798" lat="18.750428">
                <ele>347.653931</ele>
                <time>2011-02-20T03:04:58Z</time>
            </trkpt>
            <trkpt lon="98.884634" lat="18.749994">
                <ele>348.134644</ele>
                <time>2011-02-20T03:05:08Z</time>
            </trkpt>
            <trkpt lon="98.883912" lat="18.749564">
                <ele>352.941162</ele>
                <time>2011-02-20T03:05:39Z</time>
            </trkpt>
            <trkpt lon="98.883950" lat="18.749395">
                <ele>352.941162</ele>
                <time>2011-02-20T03:05:47Z</time>
            </trkpt>
            <trkpt lon="98.884349" lat="18.749132">
                <ele>356.305786</ele>
                <time>2011-02-20T03:06:08Z</time>
            </trkpt>
            <trkpt lon="98.884405" lat="18.748983">
                <ele>357.267090</ele>
                <time>2011-02-20T03:06:17Z</time>
            </trkpt>
            <trkpt lon="98.884568" lat="18.748645">
                <ele>356.786377</ele>
                <time>2011-02-20T03:06:29Z</time>
            </trkpt>
            <trkpt lon="98.884840" lat="18.748446">
                <ele>355.344482</ele>
                <time>2011-02-20T03:06:36Z</time>
            </trkpt>
            <trkpt lon="98.884865" lat="18.747971">
                <ele>350.057251</ele>
                <time>2011-02-20T03:06:44Z</time>
            </trkpt>
            <trkpt lon="98.884205" lat="18.747047">
                <ele>352.941162</ele>
                <time>2011-02-20T03:07:03Z</time>
            </trkpt>
            <trkpt lon="98.883617" lat="18.746455">
                <ele>360.151123</ele>
                <time>2011-02-20T03:07:36Z</time>
            </trkpt>
            <trkpt lon="98.882988" lat="18.746533">
                <ele>366.880249</ele>
                <time>2011-02-20T03:08:19Z</time>
            </trkpt>
            <trkpt lon="98.882036" lat="18.746282">
                <ele>368.322266</ele>
                <time>2011-02-20T03:09:41Z</time>
            </trkpt>
            <trkpt lon="98.882992" lat="18.746505">
                <ele>364.476929</ele>
                <time>2011-02-20T03:10:05Z</time>
            </trkpt>
            <trkpt lon="98.883383" lat="18.746366">
                <ele>359.670410</ele>
                <time>2011-02-20T03:10:18Z</time>
            </trkpt>
            <trkpt lon="98.882120" lat="18.745088">
                <ele>367.841553</ele>
                <time>2011-02-20T03:11:28Z</time>
            </trkpt>
            <trkpt lon="98.881603" lat="18.744363">
                <ele>374.090088</ele>
                <time>2011-02-20T03:12:23Z</time>
            </trkpt>
            <trkpt lon="98.881677" lat="18.744294">
                <ele>376.012817</ele>
                <time>2011-02-20T03:12:39Z</time>
            </trkpt>
            <trkpt lon="98.880976" lat="18.744010">
                <ele>373.128906</ele>
                <time>2011-02-20T03:13:53Z</time>
            </trkpt>
            <trkpt lon="98.880521" lat="18.743564">
                <ele>372.648193</ele>
                <time>2011-02-20T03:14:08Z</time>
            </trkpt>
            <trkpt lon="98.880509" lat="18.743358">
                <ele>373.609497</ele>
                <time>2011-02-20T03:14:13Z</time>
            </trkpt>
            <trkpt lon="98.880847" lat="18.742797">
                <ele>373.609497</ele>
                <time>2011-02-20T03:14:29Z</time>
            </trkpt>
            <trkpt lon="98.881163" lat="18.742583">
                <ele>375.051514</ele>
                <time>2011-02-20T03:14:38Z</time>
            </trkpt>
            <trkpt lon="98.881452" lat="18.741869">
                <ele>381.780640</ele>
                <time>2011-02-20T03:15:23Z</time>
            </trkpt>
            <trkpt lon="98.880747" lat="18.742077">
                <ele>383.703247</ele>
                <time>2011-02-20T03:16:04Z</time>
            </trkpt>
            <trkpt lon="98.880209" lat="18.741606">
                <ele>377.935425</ele>
                <time>2011-02-20T03:16:18Z</time>
            </trkpt>
            <trkpt lon="98.879821" lat="18.740525">
                <ele>384.664795</ele>
                <time>2011-02-20T03:16:58Z</time>
            </trkpt>
            <trkpt lon="98.879673" lat="18.740465">
                <ele>384.664795</ele>
                <time>2011-02-20T03:17:04Z</time>
            </trkpt>
            <trkpt lon="98.878459" lat="18.740854">
                <ele>390.432617</ele>
                <time>2011-02-20T03:17:46Z</time>
            </trkpt>
            <trkpt lon="98.877416" lat="18.741218">
                <ele>391.393799</ele>
                <time>2011-02-20T03:18:28Z</time>
            </trkpt>
            <trkpt lon="98.877133" lat="18.741085">
                <ele>394.758545</ele>
                <time>2011-02-20T03:18:47Z</time>
            </trkpt>
            <trkpt lon="98.877360" lat="18.740599">
                <ele>394.758545</ele>
                <time>2011-02-20T03:19:11Z</time>
            </trkpt>
            <trkpt lon="98.877217" lat="18.740420">
                <ele>394.277954</ele>
                <time>2011-02-20T03:19:19Z</time>
            </trkpt>
            <trkpt lon="98.876886" lat="18.740241">
                <ele>389.951904</ele>
                <time>2011-02-20T03:19:27Z</time>
            </trkpt>
            <trkpt lon="98.877251" lat="18.739472">
                <ele>384.184082</ele>
                <time>2011-02-20T03:19:44Z</time>
            </trkpt>
            <trkpt lon="98.877074" lat="18.738618">
                <ele>387.548584</ele>
                <time>2011-02-20T03:20:05Z</time>
            </trkpt>
            <trkpt lon="98.877193" lat="18.738494">
                <ele>386.106690</ele>
                <time>2011-02-20T03:20:12Z</time>
            </trkpt>
            <trkpt lon="98.878378" lat="18.737921">
                <ele>374.090088</ele>
                <time>2011-02-20T03:20:29Z</time>
            </trkpt>
            <trkpt lon="98.880550" lat="18.737444">
                <ele>366.399536</ele>
                <time>2011-02-20T03:20:53Z</time>
            </trkpt>
            <trkpt lon="98.880897" lat="18.737253">
                <ele>362.073731</ele>
                <time>2011-02-20T03:20:58Z</time>
            </trkpt>
            <trkpt lon="98.882273" lat="18.735839">
                <ele>356.305786</ele>
                <time>2011-02-20T03:21:23Z</time>
            </trkpt>
            <trkpt lon="98.882425" lat="18.735574">
                <ele>354.383179</ele>
                <time>2011-02-20T03:23:15Z</time>
            </trkpt>
            <trkpt lon="98.883217" lat="18.734885">
                <ele>350.537842</ele>
                <time>2011-02-20T03:23:35Z</time>
            </trkpt>
            <trkpt lon="98.884291" lat="18.734456">
                <ele>349.095825</ele>
                <time>2011-02-20T03:23:57Z</time>
            </trkpt>
            <trkpt lon="98.884601" lat="18.734291">
                <ele>347.653931</ele>
                <time>2011-02-20T03:24:03Z</time>
            </trkpt>
            <trkpt lon="98.884629" lat="18.734021">
                <ele>347.653931</ele>
                <time>2011-02-20T03:24:09Z</time>
            </trkpt>
            <trkpt lon="98.884165" lat="18.733303">
                <ele>347.653931</ele>
                <time>2011-02-20T03:24:27Z</time>
            </trkpt>
            <trkpt lon="98.884287" lat="18.733189">
                <ele>347.173218</ele>
                <time>2011-02-20T03:24:32Z</time>
            </trkpt>
            <trkpt lon="98.885368" lat="18.733032">
                <ele>345.250610</ele>
                <time>2011-02-20T03:24:55Z</time>
            </trkpt>
            <trkpt lon="98.886495" lat="18.733417">
                <ele>344.289429</ele>
                <time>2011-02-20T03:25:22Z</time>
            </trkpt>
            <trkpt lon="98.886752" lat="18.733354">
                <ele>343.808594</ele>
                <time>2011-02-20T03:25:29Z</time>
            </trkpt>
            <trkpt lon="98.886995" lat="18.732804">
                <ele>343.327881</ele>
                <time>2011-02-20T03:25:44Z</time>
            </trkpt>
            <trkpt lon="98.887138" lat="18.732708">
                <ele>342.847290</ele>
                <time>2011-02-20T03:25:48Z</time>
            </trkpt>
            <trkpt lon="98.887818" lat="18.732579">
                <ele>343.808594</ele>
                <time>2011-02-20T03:26:09Z</time>
            </trkpt>
            <trkpt lon="98.887467" lat="18.732583">
                <ele>342.366699</ele>
                <time>2011-02-20T03:26:25Z</time>
            </trkpt>
            <trkpt lon="98.886933" lat="18.732876">
                <ele>344.289429</ele>
                <time>2011-02-20T03:26:41Z</time>
            </trkpt>
            <trkpt lon="98.886792" lat="18.733280">
                <ele>344.289429</ele>
                <time>2011-02-20T03:26:51Z</time>
            </trkpt>
            <trkpt lon="98.886617" lat="18.733396">
                <ele>344.289429</ele>
                <time>2011-02-20T03:26:56Z</time>
            </trkpt>
            <trkpt lon="98.885319" lat="18.732994">
                <ele>345.250610</ele>
                <time>2011-02-20T03:27:29Z</time>
            </trkpt>
            <trkpt lon="98.885142" lat="18.733059">
                <ele>347.173218</ele>
                <time>2011-02-20T03:27:45Z</time>
            </trkpt>
            <trkpt lon="98.884003" lat="18.733155">
                <ele>348.134644</ele>
                <time>2011-02-20T03:28:22Z</time>
            </trkpt>
            <trkpt lon="98.883864" lat="18.732841">
                <ele>350.057251</ele>
                <time>2011-02-20T03:28:33Z</time>
            </trkpt>
            <trkpt lon="98.883947" lat="18.733155">
                <ele>349.576538</ele>
                <time>2011-02-20T03:28:46Z</time>
            </trkpt>
            <trkpt lon="98.884686" lat="18.734182">
                <ele>349.576538</ele>
                <time>2011-02-20T03:29:13Z</time>
            </trkpt>
            <trkpt lon="98.884613" lat="18.734347">
                <ele>349.576538</ele>
                <time>2011-02-20T03:29:18Z</time>
            </trkpt>
            <trkpt lon="98.883844" lat="18.734694">
                <ele>352.460571</ele>
                <time>2011-02-20T03:29:39Z</time>
            </trkpt>
            <trkpt lon="98.883127" lat="18.734986">
                <ele>353.421875</ele>
                <time>2011-02-20T03:30:02Z</time>
            </trkpt>
            <trkpt lon="98.884608" lat="18.734229">
                <ele>348.615234</ele>
                <time>2011-02-20T03:30:42Z</time>
            </trkpt>
            <trkpt lon="98.884475" lat="18.733749">
                <ele>348.134644</ele>
                <time>2011-02-20T03:30:51Z</time>
            </trkpt>
            <trkpt lon="98.883882" lat="18.733003">
                <ele>348.615234</ele>
                <time>2011-02-20T03:31:09Z</time>
            </trkpt>
            <trkpt lon="98.883188" lat="18.731410">
                <ele>352.460571</ele>
                <time>2011-02-20T03:31:49Z</time>
            </trkpt>
            <trkpt lon="98.882929" lat="18.731145">
                <ele>352.460571</ele>
                <time>2011-02-20T03:31:59Z</time>
            </trkpt>
            <trkpt lon="98.882963" lat="18.730971">
                <ele>354.383179</ele>
                <time>2011-02-20T03:32:05Z</time>
            </trkpt>
            <trkpt lon="98.883278" lat="18.730749">
                <ele>356.305786</ele>
                <time>2011-02-20T03:32:15Z</time>
            </trkpt>
            <trkpt lon="98.883697" lat="18.730635">
                <ele>352.460571</ele>
                <time>2011-02-20T03:32:24Z</time>
            </trkpt>
            <trkpt lon="98.884602" lat="18.730076">
                <ele>351.018433</ele>
                <time>2011-02-20T03:32:43Z</time>
            </trkpt>
            <trkpt lon="98.884138" lat="18.729161">
                <ele>348.615234</ele>
                <time>2011-02-20T03:33:03Z</time>
            </trkpt>
            <trkpt lon="98.884062" lat="18.727976">
                <ele>351.499145</ele>
                <time>2011-02-20T03:33:25Z</time>
            </trkpt>
            <trkpt lon="98.883727" lat="18.727449">
                <ele>351.979858</ele>
                <time>2011-02-20T03:33:38Z</time>
            </trkpt>
            <trkpt lon="98.883071" lat="18.726845">
                <ele>352.941162</ele>
                <time>2011-02-20T03:33:56Z</time>
            </trkpt>
            <trkpt lon="98.882595" lat="18.726643">
                <ele>353.421875</ele>
                <time>2011-02-20T03:34:06Z</time>
            </trkpt>
            <trkpt lon="98.881555" lat="18.726507">
                <ele>354.863769</ele>
                <time>2011-02-20T03:34:26Z</time>
            </trkpt>
            <trkpt lon="98.881346" lat="18.726334">
                <ele>355.344482</ele>
                <time>2011-02-20T03:34:31Z</time>
            </trkpt>
            <trkpt lon="98.881222" lat="18.725690">
                <ele>360.631714</ele>
                <time>2011-02-20T03:43:03Z</time>
            </trkpt>
            <trkpt lon="98.881223" lat="18.725690">
                <ele>360.631714</ele>
                <time>2011-02-20T03:43:04Z</time>
            </trkpt>
            <trkpt lon="98.881268" lat="18.725847">
                <ele>355.825195</ele>
                <time>2011-02-20T03:50:05Z</time>
            </trkpt>
            <trkpt lon="98.881400" lat="18.725247">
                <ele>356.305786</ele>
                <time>2011-02-20T03:50:24Z</time>
            </trkpt>
            <trkpt lon="98.882039" lat="18.724411">
                <ele>357.267090</ele>
                <time>2011-02-20T03:50:50Z</time>
            </trkpt>
            <trkpt lon="98.882142" lat="18.724182">
                <ele>356.786377</ele>
                <time>2011-02-20T03:50:56Z</time>
            </trkpt>
            <trkpt lon="98.882586" lat="18.723732">
                <ele>353.902588</ele>
                <time>2011-02-20T03:51:08Z</time>
            </trkpt>
            <trkpt lon="98.884471" lat="18.722856">
                <ele>348.615234</ele>
                <time>2011-02-20T03:51:41Z</time>
            </trkpt>
            <trkpt lon="98.884548" lat="18.722639">
                <ele>351.499145</ele>
                <time>2011-02-20T03:51:46Z</time>
            </trkpt>
            <trkpt lon="98.884585" lat="18.722362">
                <ele>351.499145</ele>
                <time>2011-02-20T03:51:54Z</time>
            </trkpt>
            <trkpt lon="98.884243" lat="18.721947">
                <ele>353.421875</ele>
                <time>2011-02-20T03:52:07Z</time>
            </trkpt>
            <trkpt lon="98.884058" lat="18.721418">
                <ele>353.421875</ele>
                <time>2011-02-20T03:52:19Z</time>
            </trkpt>
            <trkpt lon="98.884035" lat="18.721369">
                <ele>352.460571</ele>
                <time>2011-02-20T03:52:20Z</time>
            </trkpt>
            <trkpt lon="98.883504" lat="18.720611">
                <ele>351.979858</ele>
                <time>2011-02-20T03:52:36Z</time>
            </trkpt>
            <trkpt lon="98.882012" lat="18.720433">
                <ele>352.941162</ele>
                <time>2011-02-20T03:53:04Z</time>
            </trkpt>
            <trkpt lon="98.880836" lat="18.719392">
                <ele>356.305786</ele>
                <time>2011-02-20T03:53:35Z</time>
            </trkpt>
            <trkpt lon="98.879812" lat="18.719105">
                <ele>363.996338</ele>
                <time>2011-02-20T03:54:03Z</time>
            </trkpt>
            <trkpt lon="98.879164" lat="18.718953">
                <ele>363.035034</ele>
                <time>2011-02-20T03:54:19Z</time>
            </trkpt>
            <trkpt lon="98.878961" lat="18.718682">
                <ele>366.399536</ele>
                <time>2011-02-20T03:54:27Z</time>
            </trkpt>
            <trkpt lon="98.878629" lat="18.718240">
                <ele>366.880249</ele>
                <time>2011-02-20T03:54:41Z</time>
            </trkpt>
            <trkpt lon="98.877674" lat="18.717154">
                <ele>371.206299</ele>
                <time>2011-02-20T03:55:18Z</time>
            </trkpt>
            <trkpt lon="98.877518" lat="18.716381">
                <ele>361.112427</ele>
                <time>2011-02-20T03:55:36Z</time>
            </trkpt>
            <trkpt lon="98.877156" lat="18.716351">
                <ele>362.554321</ele>
                <time>2011-02-20T03:55:47Z</time>
            </trkpt>
            <trkpt lon="98.876514" lat="18.716028">
                <ele>366.880249</ele>
                <time>2011-02-20T03:56:14Z</time>
            </trkpt>
            <trkpt lon="98.876302" lat="18.715435">
                <ele>367.360962</ele>
                <time>2011-02-20T03:56:42Z</time>
            </trkpt>
            <trkpt lon="98.876606" lat="18.715032">
                <ele>375.051514</ele>
                <time>2011-02-20T03:57:26Z</time>
            </trkpt>
            <trkpt lon="98.876542" lat="18.714832">
                <ele>378.896851</ele>
                <time>2011-02-20T03:57:46Z</time>
            </trkpt>
            <trkpt lon="98.876044" lat="18.714003">
                <ele>379.377441</ele>
                <time>2011-02-20T03:58:36Z</time>
            </trkpt>
            <trkpt lon="98.876112" lat="18.713843">
                <ele>383.222656</ele>
                <time>2011-02-20T03:58:46Z</time>
            </trkpt>
            <trkpt lon="98.876405" lat="18.713687">
                <ele>386.106690</ele>
                <time>2011-02-20T03:59:05Z</time>
            </trkpt>
            <trkpt lon="98.876632" lat="18.713693">
                <ele>389.471191</ele>
                <time>2011-02-20T03:59:18Z</time>
            </trkpt>
            <trkpt lon="98.876602" lat="18.713675">
                <ele>388.990601</ele>
                <time>2011-02-20T03:59:24Z</time>
            </trkpt>
            <trkpt lon="98.876221" lat="18.713722">
                <ele>382.742065</ele>
                <time>2011-02-20T03:59:39Z</time>
            </trkpt>
            <trkpt lon="98.876107" lat="18.713922">
                <ele>378.416138</ele>
                <time>2011-02-20T03:59:44Z</time>
            </trkpt>
            <trkpt lon="98.876334" lat="18.714405">
                <ele>379.377441</ele>
                <time>2011-02-20T04:00:08Z</time>
            </trkpt>
            <trkpt lon="98.876606" lat="18.714804">
                <ele>377.935425</ele>
                <time>2011-02-20T04:00:21Z</time>
            </trkpt>
            <trkpt lon="98.876307" lat="18.715238">
                <ele>367.360962</ele>
                <time>2011-02-20T04:00:34Z</time>
            </trkpt>
            <trkpt lon="98.876479" lat="18.715979">
                <ele>367.841553</ele>
                <time>2011-02-20T04:00:55Z</time>
            </trkpt>
            <trkpt lon="98.876069" lat="18.715972">
                <ele>374.090088</ele>
                <time>2011-02-20T04:01:25Z</time>
            </trkpt>
            <trkpt lon="98.875523" lat="18.716072">
                <ele>377.454834</ele>
                <time>2011-02-20T04:02:03Z</time>
            </trkpt>
            <trkpt lon="98.875176" lat="18.715857">
                <ele>380.338745</ele>
                <time>2011-02-20T04:02:19Z</time>
            </trkpt>
            <trkpt lon="98.874196" lat="18.715687">
                <ele>393.797241</ele>
                <time>2011-02-20T04:03:52Z</time>
            </trkpt>
            <trkpt lon="98.874028" lat="18.715475">
                <ele>395.239136</ele>
                <time>2011-02-20T04:04:16Z</time>
            </trkpt>
            <trkpt lon="98.874173" lat="18.715238">
                <ele>391.874512</ele>
                <time>2011-02-20T04:04:27Z</time>
            </trkpt>
            <trkpt lon="98.873922" lat="18.714893">
                <ele>391.393799</ele>
                <time>2011-02-20T04:04:41Z</time>
            </trkpt>
            <trkpt lon="98.873926" lat="18.714552">
                <ele>392.835938</ele>
                <time>2011-02-20T04:04:58Z</time>
            </trkpt>
            <trkpt lon="98.873855" lat="18.714427">
                <ele>392.355347</ele>
                <time>2011-02-20T04:05:07Z</time>
            </trkpt>
            <trkpt lon="98.874449" lat="18.713747">
                <ele>385.145386</ele>
                <time>2011-02-20T04:05:39Z</time>
            </trkpt>
            <trkpt lon="98.874504" lat="18.712981">
                <ele>384.184082</ele>
                <time>2011-02-20T04:06:02Z</time>
            </trkpt>
            <trkpt lon="98.874478" lat="18.713649">
                <ele>385.145386</ele>
                <time>2011-02-20T04:06:21Z</time>
            </trkpt>
            <trkpt lon="98.874360" lat="18.713924">
                <ele>386.587402</ele>
                <time>2011-02-20T04:06:29Z</time>
            </trkpt>
            <trkpt lon="98.873941" lat="18.714294">
                <ele>390.432617</ele>
                <time>2011-02-20T04:06:49Z</time>
            </trkpt>
            <trkpt lon="98.873977" lat="18.714520">
                <ele>392.355347</ele>
                <time>2011-02-20T04:07:00Z</time>
            </trkpt>
            <trkpt lon="98.874011" lat="18.714862">
                <ele>389.471191</ele>
                <time>2011-02-20T04:07:11Z</time>
            </trkpt>
            <trkpt lon="98.874219" lat="18.715099">
                <ele>389.951904</ele>
                <time>2011-02-20T04:07:20Z</time>
            </trkpt>
            <trkpt lon="98.874161" lat="18.715265">
                <ele>393.316528</ele>
                <time>2011-02-20T04:07:27Z</time>
            </trkpt>
            <trkpt lon="98.874006" lat="18.715473">
                <ele>393.316528</ele>
                <time>2011-02-20T04:07:38Z</time>
            </trkpt>
            <trkpt lon="98.874196" lat="18.715691">
                <ele>392.355347</ele>
                <time>2011-02-20T04:08:23Z</time>
            </trkpt>
            <trkpt lon="98.874294" lat="18.715727">
                <ele>388.510010</ele>
                <time>2011-02-20T04:08:29Z</time>
            </trkpt>
            <trkpt lon="98.874967" lat="18.715818">
                <ele>382.742065</ele>
                <time>2011-02-20T04:09:04Z</time>
            </trkpt>
            <trkpt lon="98.874125" lat="18.715663">
                <ele>393.797241</ele>
                <time>2011-02-20T04:10:26Z</time>
            </trkpt>
            <trkpt lon="98.874043" lat="18.715494">
                <ele>394.758545</ele>
                <time>2011-02-20T04:10:34Z</time>
            </trkpt>
            <trkpt lon="98.874140" lat="18.715126">
                <ele>389.951904</ele>
                <time>2011-02-20T04:10:43Z</time>
            </trkpt>
            <trkpt lon="98.873870" lat="18.714835">
                <ele>392.835938</ele>
                <time>2011-02-20T04:10:54Z</time>
            </trkpt>
            <trkpt lon="98.873900" lat="18.714665">
                <ele>393.797241</ele>
                <time>2011-02-20T04:11:00Z</time>
            </trkpt>
            <trkpt lon="98.873805" lat="18.714422">
                <ele>393.316528</ele>
                <time>2011-02-20T04:11:09Z</time>
            </trkpt>
            <trkpt lon="98.874299" lat="18.713967">
                <ele>384.184082</ele>
                <time>2011-02-20T04:11:46Z</time>
            </trkpt>
            <trkpt lon="98.874542" lat="18.712966">
                <ele>383.703247</ele>
                <time>2011-02-20T04:12:03Z</time>
            </trkpt>
            <trkpt lon="98.875634" lat="18.713150">
                <ele>388.510010</ele>
                <time>2011-02-20T04:12:35Z</time>
            </trkpt>
            <trkpt lon="98.876575" lat="18.712216">
                <ele>400.045898</ele>
                <time>2011-02-20T04:13:58Z</time>
            </trkpt>
            <trkpt lon="98.876946" lat="18.711980">
                <ele>403.891113</ele>
                <time>2011-02-20T04:14:20Z</time>
            </trkpt>
            <trkpt lon="98.877331" lat="18.711892">
                <ele>405.333008</ele>
                <time>2011-02-20T04:14:39Z</time>
            </trkpt>
            <trkpt lon="98.879659" lat="18.711503">
                <ele>405.333008</ele>
                <time>2011-02-20T04:15:44Z</time>
            </trkpt>
            <trkpt lon="98.880072" lat="18.711528">
                <ele>405.333008</ele>
                <time>2011-02-20T04:15:53Z</time>
            </trkpt>
            <trkpt lon="98.880566" lat="18.711766">
                <ele>406.294311</ele>
                <time>2011-02-20T04:16:06Z</time>
            </trkpt>
            <trkpt lon="98.881519" lat="18.712204">
                <ele>404.852295</ele>
                <time>2011-02-20T04:16:25Z</time>
            </trkpt>
            <trkpt lon="98.882042" lat="18.713188">
                <ele>412.062256</ele>
                <time>2011-02-20T04:17:40Z</time>
            </trkpt>
            <trkpt lon="98.881345" lat="18.711980">
                <ele>403.891113</ele>
                <time>2011-02-20T04:18:17Z</time>
            </trkpt>
            <trkpt lon="98.881438" lat="18.711859">
                <ele>404.371704</ele>
                <time>2011-02-20T04:18:21Z</time>
            </trkpt>
            <trkpt lon="98.882836" lat="18.710955">
                <ele>402.929688</ele>
                <time>2011-02-20T04:18:54Z</time>
            </trkpt>
            <trkpt lon="98.883506" lat="18.710680">
                <ele>403.410400</ele>
                <time>2011-02-20T04:19:07Z</time>
            </trkpt>
            <trkpt lon="98.883803" lat="18.710616">
                <ele>399.565064</ele>
                <time>2011-02-20T04:19:12Z</time>
            </trkpt>
            <trkpt lon="98.884275" lat="18.710915">
                <ele>402.449097</ele>
                <time>2011-02-20T04:19:23Z</time>
            </trkpt>
            <trkpt lon="98.884377" lat="18.710935">
                <ele>401.968506</ele>
                <time>2011-02-20T04:19:28Z</time>
            </trkpt>
            <trkpt lon="98.884683" lat="18.710812">
                <ele>400.526489</ele>
                <time>2011-02-20T04:19:39Z</time>
            </trkpt>
            <trkpt lon="98.884811" lat="18.710484">
                <ele>401.007080</ele>
                <time>2011-02-20T04:19:50Z</time>
            </trkpt>
            <trkpt lon="98.884964" lat="18.710267">
                <ele>397.642456</ele>
                <time>2011-02-20T04:19:58Z</time>
            </trkpt>
            <trkpt lon="98.885932" lat="18.709744">
                <ele>393.797241</ele>
                <time>2011-02-20T04:20:16Z</time>
            </trkpt>
            <trkpt lon="98.885872" lat="18.709255">
                <ele>391.874512</ele>
                <time>2011-02-20T04:20:34Z</time>
            </trkpt>
            <trkpt lon="98.886461" lat="18.708565">
                <ele>389.951904</ele>
                <time>2011-02-20T04:20:56Z</time>
            </trkpt>
            <trkpt lon="98.888123" lat="18.707932">
                <ele>395.239136</ele>
                <time>2011-02-20T04:22:10Z</time>
            </trkpt>
            <trkpt lon="98.888757" lat="18.707054">
                <ele>396.200561</ele>
                <time>2011-02-20T04:22:56Z</time>
            </trkpt>
            <trkpt lon="98.889158" lat="18.706982">
                <ele>394.758545</ele>
                <time>2011-02-20T04:23:08Z</time>
            </trkpt>
            <trkpt lon="98.889402" lat="18.707141">
                <ele>392.835938</ele>
                <time>2011-02-20T04:23:16Z</time>
            </trkpt>
            <trkpt lon="98.889757" lat="18.707125">
                <ele>394.277954</ele>
                <time>2011-02-20T04:23:29Z</time>
            </trkpt>
            <trkpt lon="98.890141" lat="18.707147">
                <ele>387.067993</ele>
                <time>2011-02-20T04:23:50Z</time>
            </trkpt>
            <trkpt lon="98.890812" lat="18.707030">
                <ele>379.377441</ele>
                <time>2011-02-20T04:24:08Z</time>
            </trkpt>
            <trkpt lon="98.891047" lat="18.705814">
                <ele>374.090088</ele>
                <time>2011-02-20T04:24:33Z</time>
            </trkpt>
            <trkpt lon="98.891586" lat="18.705285">
                <ele>374.090088</ele>
                <time>2011-02-20T04:24:47Z</time>
            </trkpt>
            <trkpt lon="98.891968" lat="18.705228">
                <ele>373.609497</ele>
                <time>2011-02-20T04:24:54Z</time>
            </trkpt>
            <trkpt lon="98.892123" lat="18.705094">
                <ele>372.648193</ele>
                <time>2011-02-20T04:24:58Z</time>
            </trkpt>
            <trkpt lon="98.892725" lat="18.702943">
                <ele>354.863769</ele>
                <time>2011-02-20T04:25:47Z</time>
            </trkpt>
            <trkpt lon="98.892861" lat="18.702820">
                <ele>353.421875</ele>
                <time>2011-02-20T04:25:53Z</time>
            </trkpt>
            <trkpt lon="98.894096" lat="18.702357">
                <ele>346.212036</ele>
                <time>2011-02-20T04:26:16Z</time>
            </trkpt>
            <trkpt lon="98.894350" lat="18.702455">
                <ele>345.731323</ele>
                <time>2011-02-20T04:26:21Z</time>
            </trkpt>
            <trkpt lon="98.895314" lat="18.702223">
                <ele>336.118164</ele>
                <time>2011-02-20T04:26:35Z</time>
            </trkpt>
            <trkpt lon="98.897155" lat="18.701276">
                <ele>334.195435</ele>
                <time>2011-02-20T04:27:06Z</time>
            </trkpt>
            <trkpt lon="98.895723" lat="18.699176">
                <ele>334.195435</ele>
                <time>2011-02-20T04:28:05Z</time>
            </trkpt>
            <trkpt lon="98.894774" lat="18.698150">
                <ele>333.234131</ele>
                <time>2011-02-20T04:28:29Z</time>
            </trkpt>
            <trkpt lon="98.890810" lat="18.694779">
                <ele>338.521484</ele>
                <time>2011-02-20T04:30:18Z</time>
            </trkpt>
            <trkpt lon="98.894431" lat="18.697821">
                <ele>334.195435</ele>
                <time>2011-02-20T04:32:06Z</time>
            </trkpt>
            <trkpt lon="98.895658" lat="18.697105">
                <ele>330.350220</ele>
                <time>2011-02-20T04:32:43Z</time>
            </trkpt>
            <trkpt lon="98.895942" lat="18.697000">
                <ele>329.388916</ele>
                <time>2011-02-20T04:32:50Z</time>
            </trkpt>
            <trkpt lon="98.897442" lat="18.696627">
                <ele>327.946777</ele>
                <time>2011-02-20T04:33:29Z</time>
            </trkpt>
            <trkpt lon="98.897756" lat="18.696752">
                <ele>328.427612</ele>
                <time>2011-02-20T04:33:37Z</time>
            </trkpt>
            <trkpt lon="98.897999" lat="18.696805">
                <ele>327.946777</ele>
                <time>2011-02-20T04:33:44Z</time>
            </trkpt>
            <trkpt lon="98.898518" lat="18.696614">
                <ele>327.466186</ele>
                <time>2011-02-20T04:33:59Z</time>
            </trkpt>
            <trkpt lon="98.898656" lat="18.696458">
                <ele>325.543579</ele>
                <time>2011-02-20T04:34:06Z</time>
            </trkpt>
            <trkpt lon="98.899271" lat="18.696322">
                <ele>325.543579</ele>
                <time>2011-02-20T04:34:21Z</time>
            </trkpt>
            <trkpt lon="98.900591" lat="18.699257">
                <ele>327.466186</ele>
                <time>2011-02-20T04:35:49Z</time>
            </trkpt>
            <trkpt lon="98.900052" lat="18.698096">
                <ele>326.024170</ele>
                <time>2011-02-20T04:36:32Z</time>
            </trkpt>
            <trkpt lon="98.899479" lat="18.698402">
                <ele>326.985596</ele>
                <time>2011-02-20T04:36:49Z</time>
            </trkpt>
            <trkpt lon="98.899025" lat="18.698180">
                <ele>326.985596</ele>
                <time>2011-02-20T04:37:01Z</time>
            </trkpt>
            <trkpt lon="98.897489" lat="18.698346">
                <ele>329.869507</ele>
                <time>2011-02-20T04:37:35Z</time>
            </trkpt>
            <trkpt lon="98.896315" lat="18.698450">
                <ele>330.830933</ele>
                <time>2011-02-20T04:38:01Z</time>
            </trkpt>
            <trkpt lon="98.896023" lat="18.698511">
                <ele>331.792114</ele>
                <time>2011-02-20T04:38:08Z</time>
            </trkpt>
            <trkpt lon="98.895587" lat="18.698894">
                <ele>335.637329</ele>
                <time>2011-02-20T04:38:25Z</time>
            </trkpt>
            <trkpt lon="98.895609" lat="18.699015">
                <ele>335.637329</ele>
                <time>2011-02-20T04:38:29Z</time>
            </trkpt>
            <trkpt lon="98.897112" lat="18.701247">
                <ele>332.753540</ele>
                <time>2011-02-20T04:39:21Z</time>
            </trkpt>
            <trkpt lon="98.897614" lat="18.701794">
                <ele>332.753540</ele>
                <time>2011-02-20T04:39:34Z</time>
            </trkpt>
            <trkpt lon="98.897969" lat="18.702591">
                <ele>331.311523</ele>
                <time>2011-02-20T04:39:48Z</time>
            </trkpt>
            <trkpt lon="98.899169" lat="18.704054">
                <ele>331.792114</ele>
                <time>2011-02-20T04:40:20Z</time>
            </trkpt>
            <trkpt lon="98.899505" lat="18.704745">
                <ele>335.637329</ele>
                <time>2011-02-20T04:40:34Z</time>
            </trkpt>
            <trkpt lon="98.899626" lat="18.705163">
                <ele>335.156738</ele>
                <time>2011-02-20T04:40:43Z</time>
            </trkpt>
            <trkpt lon="98.899911" lat="18.705645">
                <ele>335.156738</ele>
                <time>2011-02-20T04:40:54Z</time>
            </trkpt>
            <trkpt lon="98.901610" lat="18.708100">
                <ele>336.118164</ele>
                <time>2011-02-20T04:41:51Z</time>
            </trkpt>
            <trkpt lon="98.903863" lat="18.711010">
                <ele>335.156738</ele>
                <time>2011-02-20T04:43:07Z</time>
            </trkpt>
            <trkpt lon="98.904048" lat="18.711404">
                <ele>334.676148</ele>
                <time>2011-02-20T04:43:15Z</time>
            </trkpt>
            <trkpt lon="98.904145" lat="18.712369">
                <ele>335.637329</ele>
                <time>2011-02-20T04:43:34Z</time>
            </trkpt>
            <trkpt lon="98.904409" lat="18.714029">
                <ele>335.156738</ele>
                <time>2011-02-20T04:44:09Z</time>
            </trkpt>
            <trkpt lon="98.905027" lat="18.715096">
                <ele>337.560059</ele>
                <time>2011-02-20T04:44:36Z</time>
            </trkpt>
            <trkpt lon="98.905167" lat="18.715660">
                <ele>338.521484</ele>
                <time>2011-02-20T04:44:50Z</time>
            </trkpt>
            <trkpt lon="98.905039" lat="18.716778">
                <ele>342.847290</ele>
                <time>2011-02-20T04:45:20Z</time>
            </trkpt>
            <trkpt lon="98.904897" lat="18.717346">
                <ele>342.366699</ele>
                <time>2011-02-20T04:45:39Z</time>
            </trkpt>
            <trkpt lon="98.905151" lat="18.718697">
                <ele>343.808594</ele>
                <time>2011-02-20T04:46:12Z</time>
            </trkpt>
            <trkpt lon="98.905542" lat="18.721232">
                <ele>341.405273</ele>
                <time>2011-02-20T04:47:04Z</time>
            </trkpt>
            <trkpt lon="98.905497" lat="18.722864">
                <ele>340.444092</ele>
                <time>2011-02-20T04:47:36Z</time>
            </trkpt>
            <trkpt lon="98.905051" lat="18.724120">
                <ele>340.444092</ele>
                <time>2011-02-20T04:48:02Z</time>
            </trkpt>
            <trkpt lon="98.904769" lat="18.727634">
                <ele>336.598877</ele>
                <time>2011-02-20T04:49:09Z</time>
            </trkpt>
            <trkpt lon="98.904906" lat="18.728441">
                <ele>335.156738</ele>
                <time>2011-02-20T04:49:25Z</time>
            </trkpt>
            <trkpt lon="98.905413" lat="18.728984">
                <ele>335.637329</ele>
                <time>2011-02-20T04:49:43Z</time>
            </trkpt>
            <trkpt lon="98.905424" lat="18.729492">
                <ele>336.118164</ele>
                <time>2011-02-20T04:49:54Z</time>
            </trkpt>
            <trkpt lon="98.906000" lat="18.730102">
                <ele>336.598877</ele>
                <time>2011-02-20T04:50:11Z</time>
            </trkpt>
            <trkpt lon="98.906270" lat="18.730672">
                <ele>336.118164</ele>
                <time>2011-02-20T04:50:26Z</time>
            </trkpt>
            <trkpt lon="98.907406" lat="18.729966">
                <ele>337.560059</ele>
                <time>2011-02-20T04:50:57Z</time>
            </trkpt>
            <trkpt lon="98.907740" lat="18.729423">
                <ele>336.118164</ele>
                <time>2011-02-20T04:51:13Z</time>
            </trkpt>
            <trkpt lon="98.908509" lat="18.729475">
                <ele>339.963379</ele>
                <time>2011-02-20T04:51:36Z</time>
            </trkpt>
            <trkpt lon="98.909391" lat="18.728336">
                <ele>337.560059</ele>
                <time>2011-02-20T04:52:11Z</time>
            </trkpt>
            <trkpt lon="98.909642" lat="18.728373">
                <ele>339.482666</ele>
                <time>2011-02-20T04:52:16Z</time>
            </trkpt>
            <trkpt lon="98.911031" lat="18.729323">
                <ele>340.924683</ele>
                <time>2011-02-20T04:52:48Z</time>
            </trkpt>
            <trkpt lon="98.912065" lat="18.730238">
                <ele>345.731323</ele>
                <time>2011-02-20T04:53:22Z</time>
            </trkpt>
            <trkpt lon="98.912717" lat="18.730832">
                <ele>345.731323</ele>
                <time>2011-02-20T04:53:45Z</time>
            </trkpt>
            <trkpt lon="98.912983" lat="18.730937">
                <ele>346.692627</ele>
                <time>2011-02-20T04:53:53Z</time>
            </trkpt>
            <trkpt lon="98.912655" lat="18.731537">
                <ele>353.421875</ele>
                <time>2011-02-20T04:54:40Z</time>
            </trkpt>
            <trkpt lon="98.913154" lat="18.732255">
                <ele>358.228394</ele>
                <time>2011-02-20T04:55:33Z</time>
            </trkpt>
            <trkpt lon="98.913573" lat="18.732888">
                <ele>356.305786</ele>
                <time>2011-02-20T04:56:04Z</time>
            </trkpt>
            <trkpt lon="98.913571" lat="18.733281">
                <ele>356.786377</ele>
                <time>2011-02-20T04:56:14Z</time>
            </trkpt>
            <trkpt lon="98.913200" lat="18.733784">
                <ele>357.747803</ele>
                <time>2011-02-20T04:56:31Z</time>
            </trkpt>
            <trkpt lon="98.912917" lat="18.734307">
                <ele>353.421875</ele>
                <time>2011-02-20T04:56:43Z</time>
            </trkpt>
            <trkpt lon="98.912888" lat="18.734541">
                <ele>358.228394</ele>
                <time>2011-02-20T04:56:50Z</time>
            </trkpt>
            <trkpt lon="98.912920" lat="18.734925">
                <ele>361.112427</ele>
                <time>2011-02-20T04:57:09Z</time>
            </trkpt>
            <trkpt lon="98.912396" lat="18.736922">
                <ele>374.570801</ele>
                <time>2011-02-20T04:59:10Z</time>
            </trkpt>
            <trkpt lon="98.912070" lat="18.737344">
                <ele>363.996338</ele>
                <time>2011-02-20T04:59:24Z</time>
            </trkpt>
            <trkpt lon="98.912176" lat="18.738216">
                <ele>377.454834</ele>
                <time>2011-02-20T05:00:09Z</time>
            </trkpt>
            <trkpt lon="98.912192" lat="18.738819">
                <ele>379.858032</ele>
                <time>2011-02-20T05:00:43Z</time>
            </trkpt>
            <trkpt lon="98.911759" lat="18.739337">
                <ele>385.625977</ele>
                <time>2011-02-20T05:01:19Z</time>
            </trkpt>
            <trkpt lon="98.911751" lat="18.739641">
                <ele>387.548584</ele>
                <time>2011-02-20T05:01:33Z</time>
            </trkpt>
            <trkpt lon="98.911703" lat="18.740085">
                <ele>388.510010</ele>
                <time>2011-02-20T05:01:55Z</time>
            </trkpt>
            <trkpt lon="98.911998" lat="18.740292">
                <ele>388.029297</ele>
                <time>2011-02-20T05:02:13Z</time>
            </trkpt>
            <trkpt lon="98.911964" lat="18.740626">
                <ele>392.355347</ele>
                <time>2011-02-20T05:02:33Z</time>
            </trkpt>
            <trkpt lon="98.911884" lat="18.740751">
                <ele>392.835938</ele>
                <time>2011-02-20T05:02:42Z</time>
            </trkpt>
            <trkpt lon="98.911420" lat="18.740788">
                <ele>391.393799</ele>
                <time>2011-02-20T05:02:58Z</time>
            </trkpt>
            <trkpt lon="98.911161" lat="18.740806">
                <ele>387.067993</ele>
                <time>2011-02-20T05:03:03Z</time>
            </trkpt>
            <trkpt lon="98.910392" lat="18.740635">
                <ele>386.106690</ele>
                <time>2011-02-20T05:03:16Z</time>
            </trkpt>
            <trkpt lon="98.910051" lat="18.741018">
                <ele>395.239136</ele>
                <time>2011-02-20T05:04:00Z</time>
            </trkpt>
            <trkpt lon="98.909546" lat="18.741190">
                <ele>400.526489</ele>
                <time>2011-02-20T05:04:44Z</time>
            </trkpt>
            <trkpt lon="98.909394" lat="18.741273">
                <ele>400.526489</ele>
                <time>2011-02-20T05:04:56Z</time>
            </trkpt>
            <trkpt lon="98.909325" lat="18.741540">
                <ele>401.968506</ele>
                <time>2011-02-20T05:05:15Z</time>
            </trkpt>
            <trkpt lon="98.909336" lat="18.741761">
                <ele>401.487793</ele>
                <time>2011-02-20T05:05:26Z</time>
            </trkpt>
            <trkpt lon="98.909675" lat="18.742062">
                <ele>391.393799</ele>
                <time>2011-02-20T05:05:47Z</time>
            </trkpt>
            <trkpt lon="98.909562" lat="18.743252">
                <ele>376.974243</ele>
                <time>2011-02-20T05:06:18Z</time>
            </trkpt>
            <trkpt lon="98.909296" lat="18.743634">
                <ele>378.416138</ele>
                <time>2011-02-20T05:06:33Z</time>
            </trkpt>
            <trkpt lon="98.908432" lat="18.744287">
                <ele>391.874512</ele>
                <time>2011-02-20T05:08:21Z</time>
            </trkpt>
            <trkpt lon="98.908356" lat="18.744430">
                <ele>393.316528</ele>
                <time>2011-02-20T05:08:35Z</time>
            </trkpt>
            <trkpt lon="98.908274" lat="18.744650">
                <ele>394.277954</ele>
                <time>2011-02-20T05:09:00Z</time>
            </trkpt>
            <trkpt lon="98.908270" lat="18.744825">
                <ele>393.316528</ele>
                <time>2011-02-20T05:09:09Z</time>
            </trkpt>
            <trkpt lon="98.908389" lat="18.744995">
                <ele>389.951904</ele>
                <time>2011-02-20T05:09:16Z</time>
            </trkpt>
            <trkpt lon="98.909021" lat="18.745231">
                <ele>381.300049</ele>
                <time>2011-02-20T05:09:29Z</time>
            </trkpt>
            <trkpt lon="98.910477" lat="18.745414">
                <ele>376.493530</ele>
                <time>2011-02-20T05:09:55Z</time>
            </trkpt>
            <trkpt lon="98.910600" lat="18.745508">
                <ele>374.570801</ele>
                <time>2011-02-20T05:09:59Z</time>
            </trkpt>
            <trkpt lon="98.910607" lat="18.746236">
                <ele>374.090088</ele>
                <time>2011-02-20T05:10:13Z</time>
            </trkpt>
            <trkpt lon="98.909531" lat="18.747149">
                <ele>384.184082</ele>
                <time>2011-02-20T05:11:47Z</time>
            </trkpt>
            <trkpt lon="98.909573" lat="18.747310">
                <ele>383.222656</ele>
                <time>2011-02-20T05:12:01Z</time>
            </trkpt>
            <trkpt lon="98.911244" lat="18.747881">
                <ele>377.935425</ele>
                <time>2011-02-20T05:12:42Z</time>
            </trkpt>
            <trkpt lon="98.912836" lat="18.749080">
                <ele>379.377441</ele>
                <time>2011-02-20T05:13:35Z</time>
            </trkpt>
            <trkpt lon="98.915132" lat="18.749938">
                <ele>371.686890</ele>
                <time>2011-02-20T05:14:24Z</time>
            </trkpt>
            <trkpt lon="98.915755" lat="18.750339">
                <ele>372.167481</ele>
                <time>2011-02-20T05:14:45Z</time>
            </trkpt>
            <trkpt lon="98.917220" lat="18.750466">
                <ele>365.438355</ele>
                <time>2011-02-20T05:15:10Z</time>
            </trkpt>
            <trkpt lon="98.917870" lat="18.750921">
                <ele>368.802978</ele>
                <time>2011-02-20T05:15:36Z</time>
            </trkpt>
            <trkpt lon="98.918343" lat="18.751124">
                <ele>367.841553</ele>
                <time>2011-02-20T05:15:52Z</time>
            </trkpt>
            <trkpt lon="98.918858" lat="18.751366">
                <ele>366.399536</ele>
                <time>2011-02-20T05:16:05Z</time>
            </trkpt>
            <trkpt lon="98.919676" lat="18.752692">
                <ele>369.283691</ele>
                <time>2011-02-20T05:16:46Z</time>
            </trkpt>
            <trkpt lon="98.919690" lat="18.753196">
                <ele>372.648193</ele>
                <time>2011-02-20T05:17:09Z</time>
            </trkpt>
            <trkpt lon="98.919488" lat="18.753659">
                <ele>379.858032</ele>
                <time>2011-02-20T05:17:43Z</time>
            </trkpt>
            <trkpt lon="98.919640" lat="18.753917">
                <ele>378.896851</ele>
                <time>2011-02-20T05:18:01Z</time>
            </trkpt>
            <trkpt lon="98.920258" lat="18.754304">
                <ele>378.416138</ele>
                <time>2011-02-20T05:18:23Z</time>
            </trkpt>
            <trkpt lon="98.921523" lat="18.755918">
                <ele>361.593140</ele>
                <time>2011-02-20T05:18:49Z</time>
            </trkpt>
            <trkpt lon="98.922505" lat="18.756352">
                <ele>355.344482</ele>
                <time>2011-02-20T05:19:10Z</time>
            </trkpt>
            <trkpt lon="98.922228" lat="18.757206">
                <ele>358.228394</ele>
                <time>2011-02-20T05:19:31Z</time>
            </trkpt>
            <trkpt lon="98.922128" lat="18.757771">
                <ele>354.383179</ele>
                <time>2011-02-20T05:19:43Z</time>
            </trkpt>
            <trkpt lon="98.922233" lat="18.758252">
                <ele>351.499145</ele>
                <time>2011-02-20T05:19:51Z</time>
            </trkpt>
            <trkpt lon="98.922389" lat="18.758371">
                <ele>352.941162</ele>
                <time>2011-02-20T05:20:09Z</time>
            </trkpt>
        </trkseg>
    </trk>
</gpx>